Time;durP1;ratioP1;P1;durP2;ratioP2;P2;SDS_P1;SDS_P2;PMS_P1;PMS_P2;Temp;Humidity;BMP_temperature;BMP_pressure;BME280_temperature;BME280_humidity;BME280_pressure;Samples;Min_cycle;Max_cycle;Signal;HPM_P1;HPM_P2
2022/10/10 00:01:13;;;;;;;15.37;7.40;;;11.50;99.90;;;10.54;100.00;97433.38;5032476;28;20758;-78
2022/10/10 00:03:39;;;;;;;15.48;7.28;;;11.50;99.90;;;10.57;100.00;97435.53;5032089;28;20477;-77
2022/10/10 00:06:06;;;;;;;12.80;7.82;;;11.50;99.90;;;10.59;100.00;97434.25;5032383;28;20498;-78
2022/10/10 00:08:32;;;;;;;13.13;7.32;;;11.50;99.90;;;10.62;100.00;97432.94;5032376;28;20472;-77
2022/10/10 00:10:58;;;;;;;9.65;6.82;;;11.50;99.90;;;10.62;100.00;97433.75;5032265;28;20406;-77
2022/10/10 00:13:24;;;;;;;13.18;7.28;;;11.50;99.90;;;10.66;100.00;97439.34;5032099;28;20504;-77
2022/10/10 00:15:51;;;;;;;12.27;8.03;;;11.60;99.90;;;10.71;100.00;97432.25;5032229;28;20399;-77
2022/10/10 00:18:17;;;;;;;13.35;8.52;;;11.60;99.90;;;10.75;100.00;97427.25;5032173;28;20419;-77
2022/10/10 00:20:43;;;;;;;13.60;7.85;;;11.70;99.90;;;10.79;100.00;97433.63;5032303;28;20403;-78
2022/10/10 00:23:09;;;;;;;15.30;8.75;;;11.70;99.90;;;10.80;100.00;97435.25;5031613;28;20831;-77
2022/10/10 00:25:36;;;;;;;14.25;8.18;;;11.70;99.90;;;10.85;100.00;97424.69;5031993;28;20403;-77
2022/10/10 00:28:03;;;;;;;12.48;7.50;;;11.70;99.90;;;10.87;100.00;97422.59;5032083;28;20406;-77
2022/10/10 00:30:30;;;;;;;14.80;8.27;;;11.80;99.90;;;10.89;100.00;97431.09;5032063;28;20402;-78
2022/10/10 00:32:58;;;;;;;11.13;7.72;;;11.80;99.90;;;10.91;100.00;97423.69;5031436;28;20403;-78
2022/10/10 00:35:25;;;;;;;11.37;8.03;;;11.80;99.90;;;10.94;100.00;97431.13;5031784;28;20919;-77
2022/10/10 00:37:51;;;;;;;12.23;7.80;;;11.80;99.90;;;10.95;100.00;97429.28;5031826;28;20403;-77
2022/10/10 00:40:17;;;;;;;11.07;7.35;;;11.80;99.90;;;10.96;100.00;97430.88;5031789;28;20414;-77
2022/10/10 00:42:43;;;;;;;14.13;7.70;;;11.80;99.90;;;10.95;100.00;97427.44;5031382;28;20541;-77
2022/10/10 00:45:24;;;;;;;12.17;7.37;;;11.80;99.90;;;10.96;100.00;97426.38;5030250;28;20419;-77
2022/10/10 00:47:57;;;;;;;12.38;7.53;;;11.90;99.90;;;10.97;100.00;97421.88;5031692;28;20461;-77
2022/10/10 00:50:25;;;;;;;11.35;7.35;;;11.80;99.90;;;10.95;100.00;97418.69;5031727;28;20403;-77
2022/10/10 00:52:51;;;;;;;9.80;7.10;;;11.90;99.90;;;10.93;100.00;97415.47;5029672;28;20933;-77
2022/10/10 00:55:17;;;;;;;9.40;6.45;;;11.80;99.90;;;10.94;100.00;97422.38;5031504;28;20399;-77
2022/10/10 00:57:44;;;;;;;9.25;6.35;;;11.80;99.90;;;10.91;100.00;97421.03;5031581;28;20824;-78
2022/10/10 01:00:11;;;;;;;9.30;6.72;;;11.80;99.90;;;10.91;100.00;97413.09;5030521;28;20395;-77
2022/10/10 01:02:37;;;;;;;10.10;6.68;;;11.80;99.90;;;10.91;100.00;97412.28;5031151;28;20455;-77
2022/10/10 01:05:04;;;;;;;12.90;6.70;;;11.80;99.90;;;10.89;100.00;97409.91;5030927;28;20498;-77
2022/10/10 01:07:32;;;;;;;10.40;6.63;;;11.80;99.90;;;10.89;100.00;97409.91;5031410;28;20415;-77
2022/10/10 01:10:02;;;;;;;7.77;6.13;;;11.80;99.90;;;10.88;100.00;97410.16;5030103;28;20431;-77
2022/10/10 01:12:39;;;;;;;9.93;6.43;;;11.80;99.90;;;10.88;100.00;97410.16;5031259;28;20399;-77
2022/10/10 01:15:13;;;;;;;13.10;6.83;;;11.80;99.90;;;10.86;100.00;97403.25;5031114;28;20410;-77
2022/10/10 01:17:46;;;;;;;9.82;6.40;;;11.80;99.90;;;10.86;100.00;97403.25;5031234;28;20812;-77
2022/10/10 01:21:02;;;;;;;11.63;6.65;;;11.70;99.90;;;10.86;100.00;97399.81;5031068;28;20403;-77
2022/10/10 01:23:58;;;;;;;12.23;7.47;;;11.70;99.90;;;10.84;100.00;97394.75;4997318;28;20517;-77
2022/10/10 01:27:24;;;;;;;11.48;7.75;;;11.80;99.90;;;10.85;100.00;97392.91;5029621;28;20406;-77
2022/10/10 01:29:54;;;;;;;11.88;6.85;;;11.70;99.90;;;10.84;100.00;97400.06;5025790;28;20419;-77
2022/10/10 01:32:30;;;;;;;10.93;7.00;;;11.80;99.90;;;10.84;100.00;97389.47;5030767;28;20403;-77
2022/10/10 01:35:14;;;;;;;10.98;7.05;;;11.80;99.90;;;10.84;100.00;97392.09;5030420;28;20403;-77
2022/10/10 01:37:51;;;;;;;10.40;7.22;;;11.80;99.90;;;10.81;100.00;97384.69;5030808;28;20757;-77
2022/10/10 01:40:25;;;;;;;11.45;6.75;;;11.70;99.90;;;10.80;100.00;97390.22;5030679;28;20968;-77
2022/10/10 01:42:55;;;;;;;12.60;6.93;;;11.70;99.90;;;10.82;100.00;97382.84;5030139;28;20941;-77
2022/10/10 01:45:25;;;;;;;10.75;6.60;;;11.70;99.90;;;10.81;100.00;97382.03;5030500;28;20399;-77
2022/10/10 01:47:54;;;;;;;11.55;7.05;;;11.70;99.90;;;10.82;100.00;97388.13;5030675;28;20739;-77
2022/10/10 01:50:24;;;;;;;8.82;6.70;;;11.70;99.90;;;10.80;100.00;97385.72;5030683;28;20410;-77
2022/10/10 01:53:08;;;;;;;9.13;6.15;;;11.70;99.90;;;10.80;100.00;97377.78;5030058;28;20546;-77
2022/10/10 01:55:53;;;;;;;11.20;6.75;;;11.70;99.90;;;10.80;100.00;97380.44;5030494;28;20831;-77
2022/10/10 01:58:44;;;;;;;11.32;6.28;;;11.70;99.90;;;10.78;100.00;97379.88;5030576;28;20404;-77
2022/10/10 02:01:21;;;;;;;9.63;6.15;;;11.70;99.90;;;10.79;100.00;97385.97;5030508;28;20830;-77
2022/10/10 02:03:55;;;;;;;10.07;6.05;;;11.70;99.90;;;10.79;100.00;97376.19;5030056;28;20418;-77
2022/10/10 02:06:29;;;;;;;10.02;6.32;;;11.70;99.90;;;10.77;100.00;97375.63;5030474;28;20490;-77
2022/10/10 02:09:02;;;;;;;8.47;6.23;;;11.70;99.90;;;10.77;100.00;97380.13;5030569;28;20487;-77
2022/10/10 02:11:31;;;;;;;12.60;6.53;;;11.60;99.90;;;10.77;100.00;97390.72;5030215;28;20403;-77
2022/10/10 02:14:05;;;;;;;9.98;6.88;;;11.70;99.90;;;10.73;100.00;97379.84;5030044;28;20492;-77
2022/10/10 02:16:37;;;;;;;8.52;6.13;;;11.60;99.90;;;10.72;100.00;97380.09;5030442;28;20421;-77
2022/10/10 02:19:07;;;;;;;9.63;6.20;;;11.60;99.90;;;10.72;100.00;97380.09;5030262;28;20916;-77
2022/10/10 02:21:34;;;;;;;16.40;7.15;;;11.60;99.90;;;10.72;100.00;97377.44;5030309;28;20403;-77
2022/10/10 02:24:05;;;;;;;9.55;6.97;;;11.60;99.90;;;10.71;100.00;97378.50;5029868;28;20506;-77
2022/10/10 02:26:34;;;;;;;9.73;6.55;;;11.60;99.90;;;10.70;100.00;97380.34;5030240;28;20407;-77
2022/10/10 02:29:06;;;;;;;10.35;6.53;;;11.60;99.90;;;10.68;100.00;97379.78;5030532;28;20742;-77
2022/10/10 02:31:40;;;;;;;9.60;6.40;;;11.60;99.90;;;10.68;100.00;97377.13;5030232;28;20864;-77
2022/10/10 02:34:12;;;;;;;10.68;6.63;;;11.60;99.90;;;10.67;100.00;97377.41;5029906;28;20399;-77
2022/10/10 02:36:39;;;;;;;9.70;6.80;;;11.60;99.90;;;10.64;100.00;97378.69;5030174;28;20399;-78
2022/10/10 02:39:06;;;;;;;15.43;7.13;;;11.60;99.90;;;10.63;100.00;97379.75;5030091;28;20509;-77
2022/10/10 02:41:35;;;;;;;9.07;6.68;;;11.50;99.90;;;10.61;100.00;97375.75;5030079;28;20400;-77
2022/10/10 02:44:01;;;;;;;10.02;6.95;;;11.50;99.90;;;10.60;100.00;97374.19;5029758;28;20915;-77
2022/10/10 02:46:27;;;;;;;10.48;6.13;;;11.50;99.90;;;10.58;100.00;97376.25;5030060;28;20395;-77
2022/10/10 02:48:54;;;;;;;10.05;6.60;;;11.50;99.90;;;10.55;100.00;97372.25;5030093;28;20442;-77
2022/10/10 02:51:21;;;;;;;9.88;7.20;;;11.50;99.90;;;10.51;100.00;97373.81;5029901;28;20501;-77
2022/10/10 02:53:46;;;;;;;11.10;6.90;;;11.40;99.90;;;10.48;100.00;97375.13;5029729;28;20395;-77
2022/10/10 02:56:12;;;;;;;11.73;6.65;;;11.40;99.90;;;10.45;100.00;97378.25;5029944;28;20461;-77
2022/10/10 02:58:38;;;;;;;12.35;7.38;;;11.40;99.90;;;10.44;100.00;97376.69;5030139;28;20808;-77
2022/10/10 03:01:04;;;;;;;10.52;7.30;;;11.40;99.90;;;10.42;100.00;97368.19;5029982;28;20438;-77
2022/10/10 03:03:30;;;;;;;12.88;7.30;;;11.30;99.90;;;10.42;100.00;97376.13;5029470;28;20422;-77
2022/10/10 03:05:57;;;;;;;10.45;7.13;;;11.30;99.90;;;10.39;100.00;97371.31;5029980;28;20411;-77
2022/10/10 03:08:23;;;;;;;9.97;6.37;;;11.30;99.90;;;10.37;100.00;97376.09;5029912;28;20414;-77
2022/10/10 03:10:58;;;;;;;8.05;6.70;;;11.30;99.90;;;10.37;100.00;97377.94;5030022;28;20754;-77
2022/10/10 03:13:24;;;;;;;11.07;6.93;;;11.30;99.90;;;10.37;100.00;97381.38;5029467;28;20939;-78
2022/10/10 03:15:51;;;;;;;8.30;6.50;;;11.30;99.90;;;10.38;100.00;97375.00;5029743;28;20461;-77
2022/10/10 03:18:18;;;;;;;12.07;6.45;;;11.30;99.90;;;10.40;100.00;97377.41;5030076;28;20404;-77
2022/10/10 03:20:44;;;;;;;9.05;6.90;;;11.30;99.90;;;10.37;100.00;97376.09;5029887;28;20407;-77
2022/10/10 03:23:12;;;;;;;11.23;6.78;;;11.30;99.90;;;10.39;100.00;97375.81;5030076;28;20422;-77
2022/10/10 03:25:40;;;;;;;11.13;6.82;;;11.30;99.90;;;10.39;100.00;97375.81;5033345;28;20422;-77
2022/10/10 03:28:06;;;;;;;11.18;6.82;;;11.30;99.90;;;10.40;100.00;97377.41;5032128;28;20408;-77
2022/10/10 03:30:32;;;;;;;9.25;6.80;;;11.30;99.90;;;10.40;100.00;97372.91;5033367;28;20407;-77
2022/10/10 03:32:58;;;;;;;11.48;6.63;;;11.30;99.90;;;10.40;100.00;97375.56;5032840;28;20902;-77
2022/10/10 03:35:24;;;;;;;7.57;6.13;;;11.30;99.90;;;10.40;100.00;97367.63;5033299;28;20449;-77
2022/10/10 03:37:50;;;;;;;9.25;6.88;;;11.30;99.90;;;10.42;100.00;97370.03;5029016;28;20449;-77
2022/10/10 03:40:17;;;;;;;8.82;6.68;;;11.30;99.90;;;10.42;100.00;97370.84;5026948;28;20438;-77
2022/10/10 03:42:43;;;;;;;10.33;6.70;;;11.40;99.90;;;10.42;100.00;97373.47;5031935;28;20983;-77
2022/10/10 03:45:09;;;;;;;10.35;7.15;;;11.30;99.90;;;10.44;100.00;97373.22;5029251;28;20731;-77
2022/10/10 03:47:35;;;;;;;9.85;6.60;;;11.40;99.90;;;10.45;100.00;97372.97;5026031;28;20535;-77
2022/10/10 03:50:01;;;;;;;11.55;6.93;;;11.40;99.90;;;10.44;100.00;97366.09;5032753;28;20792;-77
2022/10/10 03:52:27;;;;;;;11.45;6.47;;;11.40;99.90;;;10.45;100.00;97367.66;5055673;22;20433;-70
2022/10/10 03:54:53;;;;;;;9.30;6.70;;;11.40;99.90;;;10.44;100.00;97366.09;5052011;28;20409;-69
2022/10/10 03:57:20;;;;;;;7.82;6.50;;;11.40;99.90;;;10.44;100.00;97362.66;5052832;28;20401;-69
2022/10/10 03:59:46;;;;;;;13.90;6.97;;;11.40;99.90;;;10.44;100.00;97365.28;5046252;28;20432;-69
2022/10/10 04:02:12;;;;;;;12.88;7.65;;;11.40;99.90;;;10.42;100.00;97367.38;5035192;28;20511;-69
2022/10/10 04:04:37;;;;;;;13.55;7.18;;;11.30;99.90;;;10.42;100.00;97357.59;5031144;28;20426;-69
2022/10/10 04:07:03;;;;;;;8.70;7.03;;;11.30;99.90;;;10.42;100.00;97364.72;5032734;28;20896;-70
2022/10/10 04:09:29;;;;;;;9.18;6.97;;;11.30;99.90;;;10.44;100.00;97367.94;5032780;28;20410;-69
2022/10/10 04:11:55;;;;;;;12.37;7.30;;;11.40;99.90;;;10.44;100.00;97363.44;5032629;28;20442;-69
2022/10/10 04:14:23;;;;;;;10.15;7.13;;;11.40;99.90;;;10.47;100.00;97368.22;5032162;28;20738;-69
2022/10/10 04:16:48;;;;;;;11.25;6.93;;;11.40;99.90;;;10.48;100.00;97367.19;5032426;28;20399;-69
2022/10/10 04:19:14;;;;;;;13.68;7.55;;;11.40;99.90;;;10.47;100.00;97373.50;5032442;28;20415;-69
2022/10/10 04:21:40;;;;;;;10.15;7.28;;;11.40;99.90;;;10.50;100.00;97379.38;5032180;28;20543;-69
2022/10/10 04:24:06;;;;;;;9.57;7.00;;;11.40;99.90;;;10.53;100.00;97369.06;5030654;28;20454;-70
2022/10/10 04:26:32;;;;;;;12.00;7.18;;;11.40;99.90;;;10.60;100.00;97360.94;5029733;28;20414;-69
2022/10/10 04:28:58;;;;;;;13.13;7.57;;;11.50;99.90;;;10.60;100.00;97356.41;5028437;28;20458;-69
2022/10/10 04:31:25;;;;;;;10.67;7.07;;;11.50;99.90;;;10.61;100.00;97357.22;5029394;28;20925;-70
2022/10/10 04:33:51;;;;;;;11.27;7.70;;;11.50;99.90;;;10.63;100.00;97365.72;5031312;28;20418;-69
2022/10/10 04:36:17;;;;;;;13.88;7.00;;;11.50;99.90;;;10.61;100.00;97355.38;5031847;28;21512;-69
2022/10/10 04:38:43;;;;;;;11.45;7.70;;;11.50;99.90;;;10.68;100.00;97355.97;5031954;28;20411;-70
2022/10/10 04:41:09;;;;;;;10.60;7.95;;;11.60;99.90;;;10.69;100.00;97359.41;5031978;28;20461;-69
2022/10/10 04:43:35;;;;;;;13.52;7.40;;;11.60;99.90;;;10.68;100.00;97358.59;5031380;28;20446;-70
2022/10/10 04:46:01;;;;;;;9.90;6.70;;;11.60;99.90;;;10.68;100.00;97358.59;5031637;28;20447;-69
2022/10/10 04:48:28;;;;;;;11.60;7.40;;;11.60;99.90;;;10.77;100.00;97361.59;5031692;28;20473;-69
2022/10/10 04:50:57;;;;;;;9.35;7.03;;;11.70;99.90;;;10.76;100.00;97357.34;5031848;28;20407;-68
2022/10/10 04:53:23;;;;;;;10.77;7.05;;;11.70;99.90;;;10.75;100.00;97343.31;5031375;28;20932;-69
2022/10/10 04:55:49;;;;;;;12.80;7.05;;;11.60;99.90;;;10.74;100.00;97341.75;5031711;28;20503;-69
2022/10/10 04:58:15;;;;;;;12.35;6.68;;;11.70;99.90;;;10.75;100.00;97345.97;5031739;28;20991;-69
2022/10/10 05:00:41;;;;;;;11.37;6.87;;;11.60;99.90;;;10.75;100.00;97356.53;5029551;28;20502;-69
2022/10/10 05:03:11;;;;;;;11.20;7.05;;;11.70;99.90;;;10.80;100.00;97351.31;5030991;28;20493;-69
2022/10/10 05:05:38;;;;;;;11.38;6.72;;;11.70;99.90;;;10.87;100.00;97345.81;5031556;28;20504;-69
2022/10/10 05:08:05;;;;;;;8.98;6.00;;;11.70;99.90;;;10.87;100.00;97353.75;5031468;28;20439;-69
2022/10/10 05:10:35;;;;;;;11.93;6.50;;;11.80;99.90;;;10.90;100.00;97347.91;5031531;28;20399;-69
2022/10/10 05:13:02;;;;;;;13.13;6.90;;;11.80;99.90;;;10.90;100.00;97353.22;5030891;28;20399;-69
2022/10/10 05:15:27;;;;;;;13.60;6.95;;;11.80;99.90;;;10.90;100.00;97355.09;5031380;28;20738;-69
2022/10/10 05:17:53;;;;;;;16.17;7.43;;;11.80;99.90;;;10.89;100.00;97350.84;5031368;28;20410;-69
2022/10/10 05:20:19;;;;;;;13.05;7.35;;;11.80;99.90;;;10.89;100.00;97356.94;5029954;28;20403;-69
2022/10/10 05:22:46;;;;;;;16.33;8.07;;;11.80;99.90;;;10.89;100.00;97361.44;5030664;28;20422;-69
2022/10/10 05:25:13;;;;;;;13.77;7.88;;;11.80;99.90;;;10.90;100.00;97365.69;5030981;28;20403;-69
2022/10/10 05:27:40;;;;;;;18.65;7.88;;;11.70;99.90;;;10.88;100.00;97354.53;5029757;28;20450;-69
2022/10/10 05:30:07;;;;;;;15.38;8.50;;;11.80;99.90;;;10.88;100.00;97362.50;5031071;28;20802;-69
2022/10/10 05:32:33;;;;;;;14.77;7.70;;;11.80;99.90;;;10.89;100.00;97366.75;5030825;28;20409;-69
2022/10/10 05:34:59;;;;;;;14.77;7.53;;;11.70;99.90;;;10.88;100.00;97360.66;5030419;28;20428;-69
2022/10/10 05:37:25;;;;;;;13.32;7.03;;;11.70;99.90;;;10.91;100.00;97359.31;5030903;28;20411;-69
2022/10/10 05:39:52;;;;;;;11.82;6.82;;;11.80;99.90;;;10.91;100.00;97370.72;5029653;28;20422;-67
2022/10/10 05:42:18;;;;;;;11.68;6.90;;;11.80;99.90;;;10.95;100.00;97371.81;5030749;28;20414;-67
2022/10/10 05:44:44;;;;;;;12.43;6.80;;;11.80;99.90;;;10.98;100.00;97370.50;5026959;28;20473;-69
2022/10/10 05:47:09;;;;;;;14.40;7.10;;;11.80;99.90;;;10.95;100.00;97385.06;5029966;28;20406;-69
2022/10/10 05:49:35;;;;;;;12.15;7.05;;;11.80;99.90;;;10.98;100.00;97376.59;5030734;28;20461;-69
2022/10/10 05:52:01;;;;;;;15.38;6.88;;;11.80;99.90;;;11.02;100.00;97384.84;5030236;28;20439;-69
2022/10/10 05:54:27;;;;;;;11.65;6.40;;;11.90;99.90;;;11.06;100.00;97378.78;5029238;28;20399;-69
2022/10/10 05:56:54;;;;;;;12.13;6.10;;;11.90;99.90;;;11.12;100.00;97369.03;5030537;28;20430;-69
2022/10/10 05:59:20;;;;;;;12.65;6.15;;;12.00;99.90;;;11.15;100.00;97365.84;5030617;28;20410;-70
2022/10/10 06:01:46;;;;;;;10.65;6.03;;;12.00;99.90;;;11.16;100.00;97373.56;5030597;28;20399;-70
2022/10/10 06:04:12;;;;;;;11.43;6.40;;;12.10;99.90;;;11.19;100.00;97373.06;5030161;28;20419;-69
2022/10/10 06:06:38;;;;;;;12.88;5.90;;;12.10;99.90;;;11.24;100.00;97370.44;5030498;28;20526;-69
2022/10/10 06:09:04;;;;;;;12.52;6.10;;;12.10;99.90;;;11.27;100.00;97373.63;5030552;28;20431;-69
2022/10/10 06:11:30;;;;;;;13.67;6.43;;;12.10;99.90;;;11.25;100.00;97373.88;5030501;28;20414;-68
2022/10/10 06:13:57;;;;;;;16.65;6.15;;;12.10;99.90;;;11.24;100.00;97374.94;5030107;28;20804;-69
2022/10/10 06:16:25;;;;;;;13.82;6.20;;;12.10;99.90;;;11.28;100.00;97386.59;5030464;28;20407;-70
2022/10/10 06:18:52;;;;;;;10.30;6.00;;;12.10;99.90;;;11.34;100.00;97384.81;5030528;28;20399;-69
2022/10/10 06:21:18;;;;;;;9.80;5.53;;;12.20;99.90;;;11.39;100.00;97384.81;5030449;28;20403;-69
2022/10/10 06:23:44;;;;;;;9.55;5.65;;;12.20;99.90;;;11.45;100.00;97392.56;5025041;28;20493;-69
2022/10/10 06:26:11;;;;;;;10.20;5.70;;;12.30;99.90;;;11.46;100.00;97386.19;5028837;28;20765;-69
2022/10/10 06:28:37;;;;;;;10.48;6.15;;;12.30;99.90;;;11.49;100.00;97396.31;5029834;28;20418;-69
2022/10/10 06:31:07;;;;;;;14.13;5.75;;;12.30;99.90;;;11.58;100.00;97402.69;5030035;28;20407;-69
2022/10/10 06:33:36;;;;;;;9.40;5.60;;;12.40;99.90;;;11.64;100.00;97406.19;5029616;28;20423;-69
2022/10/10 06:36:04;;;;;;;10.55;5.60;;;12.50;99.90;;;11.67;100.00;97408.31;5027981;28;20414;-69
2022/10/10 06:38:30;;;;;;;13.45;5.28;;;12.50;99.90;;;11.67;100.00;97404.88;5026524;28;20408;-69
2022/10/10 06:41:01;;;;;;;9.23;5.33;;;12.50;99.90;;;11.69;100.00;97408.88;5030038;28;20403;-69
2022/10/10 06:43:27;;;;;;;14.70;5.38;;;12.50;99.90;;;11.73;100.00;97403.88;5029418;28;20514;-69
2022/10/10 06:45:53;;;;;;;11.93;5.53;;;12.60;99.90;;;11.71;100.00;97414.72;5030241;28;20485;-69
2022/10/10 06:48:20;;;;;;;12.05;5.60;;;12.50;99.90;;;11.71;100.00;97416.56;5028497;28;20403;-69
2022/10/10 06:50:56;;;;;;;11.73;5.90;;;12.60;99.90;;;11.71;100.00;97419.22;5026703;28;20399;-69
2022/10/10 06:53:22;;;;;;;12.98;5.50;;;12.50;99.90;;;11.71;100.00;97419.22;5029324;28;20399;-69
2022/10/10 06:55:48;;;;;;;11.45;5.38;;;12.50;99.90;;;11.75;100.00;97417.66;5029974;28;20407;-69
2022/10/10 06:58:13;;;;;;;8.02;5.00;;;12.60;99.90;;;11.84;100.00;97418.78;5030976;28;20411;-70
2022/10/10 07:00:39;;;;;;;7.93;4.47;;;12.70;99.90;;;11.96;100.00;97429.97;5033887;28;20403;-69
2022/10/10 07:03:05;;;;;;;9.50;4.40;;;12.80;99.90;;;11.95;100.00;97415.91;5033267;28;20477;-69
2022/10/10 07:05:32;;;;;;;8.10;4.70;;;12.80;99.90;;;11.95;100.00;97423.88;5031738;28;20435;-69
2022/10/10 07:07:58;;;;;;;7.80;4.53;;;12.80;99.90;;;12.00;100.00;97428.41;5031251;28;20429;-70
2022/10/10 07:10:24;;;;;;;8.07;5.30;;;12.80;99.90;;;11.99;100.00;97424.16;5038859;28;20418;-70
2022/10/10 07:12:50;;;;;;;8.40;5.10;;;12.80;99.90;;;12.03;100.00;97425.22;5033230;28;20426;-69
2022/10/10 07:15:16;;;;;;;9.98;4.40;;;12.80;99.90;;;12.06;100.00;97422.06;5032333;28;20489;-69
2022/10/10 07:17:42;;;;;;;9.30;5.38;;;12.90;99.90;;;12.18;100.00;97429.81;5033620;28;20394;-69
2022/10/10 07:20:08;;;;;;;6.32;4.32;;;12.90;99.90;;;12.18;100.00;97432.47;5031313;28;20423;-69
2022/10/10 07:22:36;;;;;;;9.27;5.07;;;13.00;99.90;;;12.23;100.00;97430.63;5033055;28;20431;-69
2022/10/10 07:25:02;;;;;;;8.38;5.07;;;13.00;99.90;;;12.26;100.00;97443.38;5033116;28;20482;-69
2022/10/10 07:27:28;;;;;;;17.00;5.70;;;13.00;99.90;;;12.19;100.00;97434.03;5031060;28;20419;-69
2022/10/10 07:29:54;;;;;;;8.23;4.97;;;13.00;99.90;;;12.20;100.00;97435.66;5033245;28;20903;-69
2022/10/10 07:32:19;;;;;;;16.88;5.70;;;13.00;99.90;;;12.17;100.00;97447.59;5033325;28;20445;-69
2022/10/10 07:34:45;;;;;;;8.50;4.78;;;13.00;99.90;;;12.25;100.00;97443.66;5032854;28;20485;-69
2022/10/10 07:37:11;;;;;;;9.57;5.00;;;13.10;99.90;;;12.32;100.00;97446.84;5033265;28;20465;-69
2022/10/10 07:39:39;;;;;;;10.10;4.90;;;13.10;99.90;;;12.34;100.00;97445.53;5033246;28;20418;-69
2022/10/10 07:42:04;;;;;;;12.60;4.55;;;13.20;99.90;;;12.34;100.00;97448.19;5032964;28;20419;-69
2022/10/10 07:44:32;;;;;;;6.15;3.97;;;13.20;99.90;;;12.39;100.00;97450.06;5032386;28;20408;-69
2022/10/10 07:46:59;;;;;;;10.85;4.80;;;13.20;99.90;;;12.38;100.00;97461.75;5032976;28;20912;-68
2022/10/10 07:49:25;;;;;;;7.18;4.32;;;13.20;99.90;;;12.46;100.00;97457.78;5030385;28;20419;-69
2022/10/10 07:51:51;;;;;;;7.60;4.30;;;13.30;99.90;;;12.52;100.00;97462.84;5032731;28;20407;-69
2022/10/10 07:54:16;;;;;;;8.02;4.50;;;13.30;99.90;;;12.56;100.00;97460.44;5032582;28;20426;-69
2022/10/10 07:56:44;;;;;;;9.20;4.07;;;13.40;99.90;;;12.61;100.00;97465.78;5032783;28;20465;-69
2022/10/10 07:59:09;;;;;;;8.60;4.60;;;13.40;99.90;;;12.70;100.00;97459.72;5032789;28;20407;-68
2022/10/10 08:01:35;;;;;;;8.77;4.55;;;13.50;99.90;;;12.87;100.00;97470.09;5032669;28;20427;-69
2022/10/10 08:04:01;;;;;;;10.60;4.30;;;13.60;99.90;;;12.87;100.00;97469.28;5032201;28;20422;-68
2022/10/10 08:06:27;;;;;;;9.70;4.05;;;13.70;99.90;;;12.82;100.00;97474.59;5032625;28;20765;-69
2022/10/10 08:08:53;;;;;;;9.38;4.13;;;13.70;99.90;;;12.83;100.00;97470.88;5032134;28;20403;-69
2022/10/10 08:11:20;;;;;;;6.38;3.92;;;13.60;99.90;;;12.97;100.00;97475.44;5032535;28;20409;-69
2022/10/10 08:13:49;;;;;;;6.28;3.90;;;13.70;99.90;;;12.98;100.00;97473.56;5032146;28;20395;-68
2022/10/10 08:16:15;;;;;;;7.82;4.10;;;13.70;99.90;;;13.07;100.00;97477.31;5032393;28;20402;-69
2022/10/10 08:18:41;;;;;;;7.75;4.10;;;13.80;99.90;;;13.22;100.00;97481.88;5032383;28;20411;-69
2022/10/10 08:21:10;;;;;;;12.20;4.50;;;13.90;99.90;;;13.09;100.00;97477.81;5032378;28;20403;-69
2022/10/10 08:23:36;;;;;;;11.13;5.05;;;13.90;99.90;;;13.08;100.00;97479.66;5026569;28;20565;-69
2022/10/10 08:26:07;;;;;;;11.15;4.25;;;13.90;99.90;;;13.06;100.00;97475.72;5027841;28;20466;-69
2022/10/10 08:28:33;;;;;;;9.35;4.05;;;13.90;99.90;;;13.08;100.00;97476.25;5028246;28;20414;-69
2022/10/10 08:31:04;;;;;;;9.48;4.22;;;13.90;99.90;;;13.10;100.00;97466.94;5028996;28;20472;-69
2022/10/10 08:33:30;;;;;;;8.00;4.10;;;13.90;99.90;;;13.14;100.00;97473.34;5030708;28;20403;-69
2022/10/10 08:35:56;;;;;;;5.93;3.38;;;13.90;99.90;;;13.22;100.00;97476.53;5031724;28;20406;-69
2022/10/10 08:38:22;;;;;;;6.90;3.28;;;14.00;99.90;;;13.30;100.00;97479.47;5031769;28;20466;-70
2022/10/10 08:40:52;;;;;;;7.25;3.65;;;14.00;99.90;;;13.49;100.00;97474.41;5031840;28;20869;-70
2022/10/10 08:43:25;;;;;;;5.72;3.38;;;14.20;99.90;;;13.50;100.00;97470.69;5031255;28;20827;-69
2022/10/10 08:45:53;;;;;;;6.78;3.58;;;14.30;99.90;;;13.53;100.00;97478.16;5028263;28;20904;-70
2022/10/10 08:48:27;;;;;;;5.03;3.35;;;14.30;99.90;;;13.60;100.00;97469.88;5026466;28;20501;-69
2022/10/10 08:51:00;;;;;;;5.90;3.55;;;14.30;99.90;;;13.70;100.00;97464.53;5029163;28;20420;-68
2022/10/10 08:53:31;;;;;;;5.97;3.75;;;14.40;99.90;;;13.85;100.00;97467.97;5027299;28;20411;-69
2022/10/10 08:55:57;;;;;;;9.40;3.67;;;14.50;99.90;;;14.01;100.00;97471.38;5031333;28;20904;-68
2022/10/10 08:58:28;;;;;;;5.47;3.55;;;14.60;99.90;;;14.08;100.00;97468.44;5031641;28;20391;-68
2022/10/10 09:01:04;;;;;;;7.43;3.30;;;14.80;99.90;;;14.09;100.00;97464.72;5031628;28;20484;-69
2022/10/10 09:03:39;;;;;;;10.38;3.17;;;14.80;99.90;;;14.14;100.00;97465.47;5030409;28;20774;-69
2022/10/10 09:06:24;;;;;;;8.77;2.90;;;14.90;99.90;;;14.21;100.00;97475.84;5031306;28;20435;-68
2022/10/10 09:09:03;;;;;;;7.25;3.08;;;14.90;99.90;;;14.31;100.00;97475.81;5029131;28;20972;-69
2022/10/10 09:11:47;;;;;;;9.73;3.92;;;15.00;99.90;;;14.30;100.00;97475.00;5027942;28;20403;-69
2022/10/10 09:14:31;;;;;;;6.88;2.80;;;15.10;99.90;;;14.40;100.00;97471.56;5028476;28;20800;-68
2022/10/10 09:17:04;;;;;;;5.30;3.08;;;15.10;99.90;;;14.55;100.00;97471.47;5024802;28;20449;-68
2022/10/10 09:19:45;;;;;;;8.20;2.78;;;15.30;99.90;;;14.88;100.00;97477.97;5029398;28;22435;-69
2022/10/10 09:22:16;;;;;;;5.85;2.92;;;15.50;99.90;;;14.73;99.62;97475.41;5030403;28;20757;-69
2022/10/10 09:24:47;;;;;;;5.78;2.92;;;15.40;99.90;;;14.81;100.00;97482.78;5025477;28;20415;-68
2022/10/10 09:27:28;;;;;;;7.70;3.17;;;15.50;99.90;;;14.91;99.08;97484.59;5030934;28;20458;-69
2022/10/10 09:30:01;;;;;;;10.48;3.30;;;15.60;99.90;;;14.77;98.42;97479.09;5011330;28;20445;-68
2022/10/10 09:32:33;;;;;;;5.63;2.85;;;15.50;99.90;;;14.78;99.98;97483.34;5027099;28;20407;-68
2022/10/10 09:35:13;;;;;;;7.55;3.05;;;15.50;99.90;;;14.80;100.00;97485.75;5030598;28;20851;-69
2022/10/10 09:37:40;;;;;;;5.10;2.90;;;15.50;99.90;;;15.01;100.00;97488.00;5030969;28;20417;-69
2022/10/10 09:40:16;;;;;;;6.70;2.70;;;15.60;99.90;;;15.17;100.00;97490.56;5029472;28;20879;-69
2022/10/10 09:42:49;;;;;;;7.75;2.90;;;15.90;99.90;;;15.34;99.54;97490.97;5029884;28;20511;-68
2022/10/10 09:45:19;;;;;;;8.73;2.77;;;16.00;99.90;;;15.38;98.20;97490.16;5025579;28;20593;-69
2022/10/10 09:47:49;;;;;;;7.22;3.13;;;16.10;99.90;;;15.46;97.50;97486.88;5025980;28;20494;-68
2022/10/10 09:50:16;;;;;;;5.45;2.58;;;16.20;99.90;;;15.57;97.46;97489.47;5025985;28;20421;-68
2022/10/10 09:52:43;;;;;;;9.27;3.00;;;16.20;99.90;;;15.70;96.21;97486.19;5029354;28;20418;-69
2022/10/10 09:55:23;;;;;;;8.55;3.10;;;16.40;99.90;;;15.65;95.24;97496.88;5027147;28;21009;-69
2022/10/10 09:57:52;;;;;;;9.57;2.80;;;16.30;99.90;;;15.61;94.85;97487.84;5047949;22;20931;-69
2022/10/10 10:00:34;;;;;;;5.03;2.67;;;16.30;99.90;;;15.62;93.32;97487.56;5043804;28;20422;-69
2022/10/10 10:03:13;;;;;;;11.30;3.15;;;16.30;99.90;;;15.66;93.22;97490.47;5043757;28;20405;-69
2022/10/10 10:05:43;;;;;;;6.88;2.97;;;16.40;99.90;;;15.77;93.98;97492.78;5050397;28;20401;-69
2022/10/10 10:08:25;;;;;;;7.20;2.55;;;16.40;99.90;;;15.75;94.87;97494.94;5038143;28;20407;-69
2022/10/10 10:10:56;;;;;;;8.10;2.80;;;16.40;99.90;;;15.91;94.50;97492.91;5027815;28;20429;-69
2022/10/10 10:13:27;;;;;;;9.00;3.13;;;16.50;99.90;;;15.80;92.28;97497.53;5030083;28;20465;-69
2022/10/10 10:16:04;;;;;;;6.45;2.45;;;16.60;99.90;;;15.78;92.70;97490.91;5024967;28;20420;-69
2022/10/10 10:18:37;;;;;;;8.63;2.90;;;16.50;99.90;;;15.76;93.17;97496.53;5020077;28;20396;-69